sensor_id;sensor_type;location;lat;lon;timestamp;P1;durP1;ratioP1;P2;durP2;ratioP2
50165;SDS011;36071;48.140;11.516;2023-10-08T00:04:55;6.8;;;3.5;;
50165;SDS011;36071;48.140;11.516;2023-10-08T00:09:55;6.6;;;4.0;;
50165;SDS011;36071;48.140;11.516;2023-10-08T00:14:55;7.8;;;4.0;;
50165;SDS011;36071;48.140;11.516;2023-10-08T00:19:55;6.1;;;3.6;;
50165;SDS011;36071;48.140;11.516;2023-10-08T00:24:55;7.4;;;3.6;;
50165;SDS011;36071;48.140;11.516;2023-10-08T00:29:56;6.5;;;3.5;;
50165;SDS011;36071;48.140;11.516;2023-10-08T00:34:55;7.2;;;3.8;;
50165;SDS011;36071;48.140;11.516;2023-10-08T00:39:55;8.3;;;3.7;;
50165;SDS011;36071;48.140;11.516;2023-10-08T00:44:55;10.1;;;4.4;;
50165;SDS011;36071;48.140;11.516;2023-10-08T00:49:56;6.4;;;3.1;;
50165;SDS011;36071;48.140;11.516;2023-10-08T00:54:55;6.9;;;3.6;;
50165;SDS011;36071;48.140;11.516;2023-10-08T00:59:55;6.9;;;3.4;;
50165;SDS011;36071;48.140;11.516;2023-10-08T01:04:55;8.4;;;3.5;;
50165;SDS011;36071;48.140;11.516;2023-10-08T01:09:55;7.3;;;3.1;;
50165;SDS011;36071;48.140;11.516;2023-10-08T01:14:55;9.6;;;3.7;;
50165;SDS011;36071;48.140;11.516;2023-10-08T01:19:56;8.5;;;3.5;;
50165;SDS011;36071;48.140;11.516;2023-10-08T01:24:56;8.4;;;3.8;;
50165;SDS011;36071;48.140;11.516;2023-10-08T01:29:55;9.6;;;3.7;;
50165;SDS011;36071;48.140;11.516;2023-10-08T01:34:55;8.5;;;3.4;;
50165;SDS011;36071;48.140;11.516;2023-10-08T01:39:55;8.8;;;3.6;;
50165;SDS011;36071;48.140;11.516;2023-10-08T01:44:55;6.1;;;3.2;;
50165;SDS011;36071;48.140;11.516;2023-10-08T01:49:55;6.4;;;3.2;;
50165;SDS011;36071;48.140;11.516;2023-10-08T01:54:55;10.6;;;3.6;;
50165;SDS011;36071;48.140;11.516;2023-10-08T01:59:55;6.3;;;3.4;;
50165;SDS011;36071;48.140;11.516;2023-10-08T02:04:55;8.5;;;3.3;;
50165;SDS011;36071;48.140;11.516;2023-10-08T02:09:55;8.4;;;3.4;;
50165;SDS011;36071;48.140;11.516;2023-10-08T02:14:55;8.4;;;3.3;;
50165;SDS011;36071;48.140;11.516;2023-10-08T02:19:55;7.0;;;3.2;;
50165;SDS011;36071;48.140;11.516;2023-10-08T02:24:56;7.6;;;3.7;;
50165;SDS011;36071;48.140;11.516;2023-10-08T02:29:55;7.1;;;3.2;;
50165;SDS011;36071;48.140;11.516;2023-10-08T02:34:55;7.3;;;3.4;;
50165;SDS011;36071;48.140;11.516;2023-10-08T02:39:55;9.2;;;3.2;;
50165;SDS011;36071;48.140;11.516;2023-10-08T02:44:55;8.4;;;3.1;;
50165;SDS011;36071;48.140;11.516;2023-10-08T02:49:55;7.8;;;3.5;;
50165;SDS011;36071;48.140;11.516;2023-10-08T02:54:56;7.3;;;3.3;;
50165;SDS011;36071;48.140;11.516;2023-10-08T02:59:55;6.8;;;3.3;;
50165;SDS011;36071;48.140;11.516;2023-10-08T03:04:55;9.7;;;3.3;;
50165;SDS011;36071;48.140;11.516;2023-10-08T03:09:55;8.8;;;3.8;;
50165;SDS011;36071;48.140;11.516;2023-10-08T03:14:55;6.1;;;3.2;;
50165;SDS011;36071;48.140;11.516;2023-10-08T03:19:56;8.9;;;3.2;;
50165;SDS011;36071;48.140;11.516;2023-10-08T03:24:56;7.2;;;3.1;;
50165;SDS011;36071;48.140;11.516;2023-10-08T03:29:55;7.7;;;3.2;;
50165;SDS011;36071;48.140;11.516;2023-10-08T03:34:55;6.8;;;2.9;;
50165;SDS011;36071;48.140;11.516;2023-10-08T03:39:55;6.7;;;3.1;;
50165;SDS011;36071;48.140;11.516;2023-10-08T03:44:55;7.9;;;3.4;;
50165;SDS011;36071;48.140;11.516;2023-10-08T03:49:55;9.0;;;3.0;;
50165;SDS011;36071;48.140;11.516;2023-10-08T03:54:56;7.6;;;3.5;;
50165;SDS011;36071;48.140;11.516;2023-10-08T03:59:55;9.2;;;3.3;;
50165;SDS011;36071;48.140;11.516;2023-10-08T04:04:55;8.0;;;3.3;;
50165;SDS011;36071;48.140;11.516;2023-10-08T04:09:56;8.0;;;3.2;;
50165;SDS011;36071;48.140;11.516;2023-10-08T04:14:55;9.6;;;3.1;;
50165;SDS011;36071;48.140;11.516;2023-10-08T04:19:55;13.1;;;4.0;;
50165;SDS011;36071;48.140;11.516;2023-10-08T04:24:56;12.9;;;3.3;;
50165;SDS011;36071;48.140;11.516;2023-10-08T04:29:55;9.2;;;3.6;;
50165;SDS011;36071;48.140;11.516;2023-10-08T04:34:55;14.2;;;3.8;;
50165;SDS011;36071;48.140;11.516;2023-10-08T04:39:56;11.8;;;3.5;;
50165;SDS011;36071;48.140;11.516;2023-10-08T04:44:55;8.8;;;3.0;;
50165;SDS011;36071;48.140;11.516;2023-10-08T04:49:55;10.7;;;3.4;;
50165;SDS011;36071;48.140;11.516;2023-10-08T04:54:56;13.8;;;4.6;;
50165;SDS011;36071;48.140;11.516;2023-10-08T04:59:55;8.9;;;4.1;;
50165;SDS011;36071;48.140;11.516;2023-10-08T05:04:56;10.3;;;3.7;;
50165;SDS011;36071;48.140;11.516;2023-10-08T05:09:56;7.3;;;3.2;;
50165;SDS011;36071;48.140;11.516;2023-10-08T05:14:55;9.1;;;3.1;;
50165;SDS011;36071;48.140;11.516;2023-10-08T05:19:55;9.0;;;3.6;;
50165;SDS011;36071;48.140;11.516;2023-10-08T05:24:56;9.5;;;3.6;;
50165;SDS011;36071;48.140;11.516;2023-10-08T05:29:55;10.2;;;4.3;;
50165;SDS011;36071;48.140;11.516;2023-10-08T05:34:55;10.3;;;3.3;;
50165;SDS011;36071;48.140;11.516;2023-10-08T05:39:56;7.2;;;3.1;;
50165;SDS011;36071;48.140;11.516;2023-10-08T05:44:55;8.5;;;3.4;;
50165;SDS011;36071;48.140;11.516;2023-10-08T05:49:55;11.0;;;4.6;;
50165;SDS011;36071;48.140;11.516;2023-10-08T05:54:56;9.3;;;4.1;;
50165;SDS011;36071;48.140;11.516;2023-10-08T05:59:56;10.8;;;3.7;;
50165;SDS011;36071;48.140;11.516;2023-10-08T06:04:57;9.3;;;3.7;;
50165;SDS011;36071;48.140;11.516;2023-10-08T06:09:56;9.2;;;3.8;;
50165;SDS011;36071;48.140;11.516;2023-10-08T06:14:56;9.8;;;3.6;;
50165;SDS011;36071;48.140;11.516;2023-10-08T06:19:56;9.9;;;4.1;;
50165;SDS011;36071;48.140;11.516;2023-10-08T06:24:56;8.5;;;3.5;;
50165;SDS011;36071;48.140;11.516;2023-10-08T06:29:55;9.0;;;3.6;;
50165;SDS011;36071;48.140;11.516;2023-10-08T06:34:55;7.1;;;3.6;;
50165;SDS011;36071;48.140;11.516;2023-10-08T06:39:56;7.4;;;3.9;;
50165;SDS011;36071;48.140;11.516;2023-10-08T06:44:55;9.0;;;4.1;;
50165;SDS011;36071;48.140;11.516;2023-10-08T06:49:55;9.6;;;3.5;;
50165;SDS011;36071;48.140;11.516;2023-10-08T06:54:56;9.3;;;3.9;;
50165;SDS011;36071;48.140;11.516;2023-10-08T06:59:56;7.8;;;3.7;;
50165;SDS011;36071;48.140;11.516;2023-10-08T07:04:55;9.0;;;4.1;;
50165;SDS011;36071;48.140;11.516;2023-10-08T07:09:56;10.3;;;4.1;;
50165;SDS011;36071;48.140;11.516;2023-10-08T07:14:57;10.5;;;3.9;;
50165;SDS011;36071;48.140;11.516;2023-10-08T07:19:55;9.9;;;4.0;;
50165;SDS011;36071;48.140;11.516;2023-10-08T07:24:56;9.1;;;3.6;;
50165;SDS011;36071;48.140;11.516;2023-10-08T07:29:55;13.0;;;4.1;;
50165;SDS011;36071;48.140;11.516;2023-10-08T07:34:55;8.5;;;3.3;;
50165;SDS011;36071;48.140;11.516;2023-10-08T07:39:56;8.9;;;3.6;;
50165;SDS011;36071;48.140;11.516;2023-10-08T07:44:55;12.8;;;3.8;;
50165;SDS011;36071;48.140;11.516;2023-10-08T07:49:56;9.4;;;3.6;;
50165;SDS011;36071;48.140;11.516;2023-10-08T07:54:56;10.6;;;3.9;;
50165;SDS011;36071;48.140;11.516;2023-10-08T07:59:55;11.3;;;3.8;;
50165;SDS011;36071;48.140;11.516;2023-10-08T08:04:55;10.0;;;4.1;;
50165;SDS011;36071;48.140;11.516;2023-10-08T08:09:56;13.0;;;4.2;;
50165;SDS011;36071;48.140;11.516;2023-10-08T08:14:55;9.4;;;3.5;;
50165;SDS011;36071;48.140;11.516;2023-10-08T08:19:55;8.9;;;4.1;;
50165;SDS011;36071;48.140;11.516;2023-10-08T08:24:56;11.4;;;3.7;;
50165;SDS011;36071;48.140;11.516;2023-10-08T08:29:56;8.8;;;3.4;;
50165;SDS011;36071;48.140;11.516;2023-10-08T08:34:55;12.2;;;4.6;;
50165;SDS011;36071;48.140;11.516;2023-10-08T08:39:57;14.4;;;4.3;;
50165;SDS011;36071;48.140;11.516;2023-10-08T08:44:55;11.5;;;4.1;;
50165;SDS011;36071;48.140;11.516;2023-10-08T08:49:56;13.5;;;4.5;;
50165;SDS011;36071;48.140;11.516;2023-10-08T08:54:55;11.9;;;4.0;;
50165;SDS011;36071;48.140;11.516;2023-10-08T08:59:56;11.9;;;3.9;;
50165;SDS011;36071;48.140;11.516;2023-10-08T09:04:55;15.1;;;4.3;;
50165;SDS011;36071;48.140;11.516;2023-10-08T09:09:56;18.1;;;4.5;;
50165;SDS011;36071;48.140;11.516;2023-10-08T09:14:59;11.4;;;3.9;;
50165;SDS011;36071;48.140;11.516;2023-10-08T09:19:55;14.2;;;4.0;;
50165;SDS011;36071;48.140;11.516;2023-10-08T09:24:56;11.6;;;3.6;;
50165;SDS011;36071;48.140;11.516;2023-10-08T09:29:56;21.4;;;8.3;;
50165;SDS011;36071;48.140;11.516;2023-10-08T09:34:56;13.7;;;5.9;;
50165;SDS011;36071;48.140;11.516;2023-10-08T09:39:55;11.0;;;4.8;;
50165;SDS011;36071;48.140;11.516;2023-10-08T09:44:56;10.2;;;4.0;;
50165;SDS011;36071;48.140;11.516;2023-10-08T09:49:56;23.5;;;10.7;;
50165;SDS011;36071;48.140;11.516;2023-10-08T09:54:56;13.0;;;4.8;;
50165;SDS011;36071;48.140;11.516;2023-10-08T09:59:56;20.7;;;7.0;;
50165;SDS011;36071;48.140;11.516;2023-10-08T10:04:56;23.9;;;9.2;;
50165;SDS011;36071;48.140;11.516;2023-10-08T10:09:56;15.4;;;4.6;;
50165;SDS011;36071;48.140;11.516;2023-10-08T10:14:56;14.4;;;4.9;;
50165;SDS011;36071;48.140;11.516;2023-10-08T10:19:56;15.5;;;4.2;;
50165;SDS011;36071;48.140;11.516;2023-10-08T10:24:56;16.3;;;4.6;;
50165;SDS011;36071;48.140;11.516;2023-10-08T10:30:01;20.3;;;8.2;;
50165;SDS011;36071;48.140;11.516;2023-10-08T10:34:56;14.4;;;6.0;;
50165;SDS011;36071;48.140;11.516;2023-10-08T10:39:56;16.1;;;5.0;;
50165;SDS011;36071;48.140;11.516;2023-10-08T10:44:56;14.2;;;4.5;;
50165;SDS011;36071;48.140;11.516;2023-10-08T10:49:56;15.5;;;4.9;;
50165;SDS011;36071;48.140;11.516;2023-10-08T10:54:55;15.2;;;4.1;;
50165;SDS011;36071;48.140;11.516;2023-10-08T10:59:56;14.0;;;4.6;;
50165;SDS011;36071;48.140;11.516;2023-10-08T11:04:56;16.6;;;5.0;;
50165;SDS011;36071;48.140;11.516;2023-10-08T11:09:55;13.8;;;4.3;;
50165;SDS011;36071;48.140;11.516;2023-10-08T11:14:56;11.8;;;4.3;;
50165;SDS011;36071;48.140;11.516;2023-10-08T11:19:56;15.2;;;4.3;;
50165;SDS011;36071;48.140;11.516;2023-10-08T11:24:56;16.5;;;4.2;;
50165;SDS011;36071;48.140;11.516;2023-10-08T11:29:56;13.4;;;4.5;;
50165;SDS011;36071;48.140;11.516;2023-10-08T11:34:56;14.9;;;4.3;;
50165;SDS011;36071;48.140;11.516;2023-10-08T11:39:56;13.0;;;4.1;;
50165;SDS011;36071;48.140;11.516;2023-10-08T11:44:56;19.4;;;5.5;;
50165;SDS011;36071;48.140;11.516;2023-10-08T11:49:56;13.7;;;4.4;;
50165;SDS011;36071;48.140;11.516;2023-10-08T11:54:56;16.5;;;5.3;;
50165;SDS011;36071;48.140;11.516;2023-10-08T11:59:56;16.3;;;4.4;;
50165;SDS011;36071;48.140;11.516;2023-10-08T12:04:56;15.8;;;5.1;;
50165;SDS011;36071;48.140;11.516;2023-10-08T12:09:56;32.8;;;11.4;;
50165;SDS011;36071;48.140;11.516;2023-10-08T12:14:56;13.7;;;4.4;;
50165;SDS011;36071;48.140;11.516;2023-10-08T12:19:56;14.2;;;5.3;;
50165;SDS011;36071;48.140;11.516;2023-10-08T12:24:56;15.4;;;4.3;;
50165;SDS011;36071;48.140;11.516;2023-10-08T12:29:55;15.4;;;4.5;;
50165;SDS011;36071;48.140;11.516;2023-10-08T12:34:56;17.8;;;4.6;;
50165;SDS011;36071;48.140;11.516;2023-10-08T12:39:56;17.0;;;4.3;;
50165;SDS011;36071;48.140;11.516;2023-10-08T12:44:56;17.2;;;4.8;;
50165;SDS011;36071;48.140;11.516;2023-10-08T12:49:56;18.7;;;4.7;;
50165;SDS011;36071;48.140;11.516;2023-10-08T12:54:56;17.8;;;5.2;;
50165;SDS011;36071;48.140;11.516;2023-10-08T12:59:56;16.0;;;4.3;;
50165;SDS011;36071;48.140;11.516;2023-10-08T13:04:56;15.1;;;3.8;;
50165;SDS011;36071;48.140;11.516;2023-10-08T13:09:56;14.3;;;4.3;;
50165;SDS011;36071;48.140;11.516;2023-10-08T13:14:56;15.5;;;4.5;;
50165;SDS011;36071;48.140;11.516;2023-10-08T13:19:56;21.6;;;6.6;;
50165;SDS011;36071;48.140;11.516;2023-10-08T13:24:56;25.7;;;9.3;;
50165;SDS011;36071;48.140;11.516;2023-10-08T13:29:56;62.7;;;40.3;;
50165;SDS011;36071;48.140;11.516;2023-10-08T13:34:56;23.5;;;8.5;;
50165;SDS011;36071;48.140;11.516;2023-10-08T13:39:56;16.2;;;4.8;;
50165;SDS011;36071;48.140;11.516;2023-10-08T13:44:56;19.2;;;7.1;;
50165;SDS011;36071;48.140;11.516;2023-10-08T13:49:56;19.0;;;9.9;;
50165;SDS011;36071;48.140;11.516;2023-10-08T13:54:56;16.8;;;4.0;;
50165;SDS011;36071;48.140;11.516;2023-10-08T13:59:56;16.9;;;6.3;;
50165;SDS011;36071;48.140;11.516;2023-10-08T14:04:56;16.2;;;5.4;;
50165;SDS011;36071;48.140;11.516;2023-10-08T14:09:56;18.6;;;4.7;;
50165;SDS011;36071;48.140;11.516;2023-10-08T14:14:56;15.6;;;4.1;;
50165;SDS011;36071;48.140;11.516;2023-10-08T14:19:56;16.3;;;4.4;;
50165;SDS011;36071;48.140;11.516;2023-10-08T14:24:56;19.5;;;4.6;;
50165;SDS011;36071;48.140;11.516;2023-10-08T14:29:56;21.5;;;5.0;;
50165;SDS011;36071;48.140;11.516;2023-10-08T14:34:56;18.7;;;6.3;;
50165;SDS011;36071;48.140;11.516;2023-10-08T14:39:56;24.1;;;10.6;;
50165;SDS011;36071;48.140;11.516;2023-10-08T14:44:56;19.9;;;8.5;;
50165;SDS011;36071;48.140;11.516;2023-10-08T14:49:56;24.6;;;9.1;;
50165;SDS011;36071;48.140;11.516;2023-10-08T14:54:56;22.7;;;7.5;;
50165;SDS011;36071;48.140;11.516;2023-10-08T14:59:56;25.5;;;12.9;;
50165;SDS011;36071;48.140;11.516;2023-10-08T15:04:56;23.0;;;9.8;;
50165;SDS011;36071;48.140;11.516;2023-10-08T15:09:56;26.0;;;9.1;;
50165;SDS011;36071;48.140;11.516;2023-10-08T15:14:56;20.9;;;5.6;;
50165;SDS011;36071;48.140;11.516;2023-10-08T15:19:56;23.1;;;7.8;;
50165;SDS011;36071;48.140;11.516;2023-10-08T15:24:56;18.0;;;5.3;;
50165;SDS011;36071;48.140;11.516;2023-10-08T15:29:56;19.6;;;5.5;;
50165;SDS011;36071;48.140;11.516;2023-10-08T15:34:56;16.7;;;5.3;;
50165;SDS011;36071;48.140;11.516;2023-10-08T15:39:56;18.9;;;4.9;;
50165;SDS011;36071;48.140;11.516;2023-10-08T15:44:56;16.6;;;5.3;;
50165;SDS011;36071;48.140;11.516;2023-10-08T15:49:56;17.0;;;5.2;;
50165;SDS011;36071;48.140;11.516;2023-10-08T15:54:56;15.7;;;4.5;;
50165;SDS011;36071;48.140;11.516;2023-10-08T15:59:56;19.0;;;4.8;;
50165;SDS011;36071;48.140;11.516;2023-10-08T16:04:56;17.5;;;6.0;;
50165;SDS011;36071;48.140;11.516;2023-10-08T16:09:56;18.3;;;5.7;;
50165;SDS011;36071;48.140;11.516;2023-10-08T16:14:56;22.3;;;6.2;;
50165;SDS011;36071;48.140;11.516;2023-10-08T16:19:56;21.9;;;10.1;;
50165;SDS011;36071;48.140;11.516;2023-10-08T16:24:56;26.1;;;10.4;;
50165;SDS011;36071;48.140;11.516;2023-10-08T16:29:56;34.5;;;16.5;;
50165;SDS011;36071;48.140;11.516;2023-10-08T16:34:56;43.7;;;24.8;;
50165;SDS011;36071;48.140;11.516;2023-10-08T16:39:56;30.9;;;14.7;;
50165;SDS011;36071;48.140;11.516;2023-10-08T16:44:56;41.9;;;20.5;;
50165;SDS011;36071;48.140;11.516;2023-10-08T16:49:56;28.7;;;14.0;;
50165;SDS011;36071;48.140;11.516;2023-10-08T16:54:56;27.2;;;12.2;;
50165;SDS011;36071;48.140;11.516;2023-10-08T16:59:56;32.7;;;9.4;;
50165;SDS011;36071;48.140;11.516;2023-10-08T17:04:56;56.3;;;35.3;;
50165;SDS011;36071;48.140;11.516;2023-10-08T17:09:56;30.5;;;11.5;;
50165;SDS011;36071;48.140;11.516;2023-10-08T17:14:56;22.6;;;8.4;;
50165;SDS011;36071;48.140;11.516;2023-10-08T17:19:56;19.7;;;7.9;;
50165;SDS011;36071;48.140;11.516;2023-10-08T17:24:56;22.3;;;7.1;;
50165;SDS011;36071;48.140;11.516;2023-10-08T17:29:56;25.2;;;10.3;;
50165;SDS011;36071;48.140;11.516;2023-10-08T17:34:56;22.7;;;8.5;;
50165;SDS011;36071;48.140;11.516;2023-10-08T17:39:56;20.5;;;8.1;;
50165;SDS011;36071;48.140;11.516;2023-10-08T17:44:56;20.2;;;7.9;;
50165;SDS011;36071;48.140;11.516;2023-10-08T17:49:56;22.4;;;8.7;;
50165;SDS011;36071;48.140;11.516;2023-10-08T17:54:56;19.8;;;7.7;;
50165;SDS011;36071;48.140;11.516;2023-10-08T17:59:56;20.9;;;9.6;;
50165;SDS011;36071;48.140;11.516;2023-10-08T18:04:56;25.0;;;11.4;;
50165;SDS011;36071;48.140;11.516;2023-10-08T18:09:56;23.4;;;9.5;;
50165;SDS011;36071;48.140;11.516;2023-10-08T18:14:56;32.1;;;15.3;;
50165;SDS011;36071;48.140;11.516;2023-10-08T18:19:56;24.6;;;9.0;;
50165;SDS011;36071;48.140;11.516;2023-10-08T18:24:56;23.1;;;8.6;;
50165;SDS011;36071;48.140;11.516;2023-10-08T18:29:56;21.0;;;8.0;;
50165;SDS011;36071;48.140;11.516;2023-10-08T18:34:56;22.2;;;7.5;;
50165;SDS011;36071;48.140;11.516;2023-10-08T18:39:56;26.4;;;9.8;;
50165;SDS011;36071;48.140;11.516;2023-10-08T18:44:56;24.2;;;9.5;;
50165;SDS011;36071;48.140;11.516;2023-10-08T18:49:57;21.8;;;9.4;;
50165;SDS011;36071;48.140;11.516;2023-10-08T18:54:56;23.2;;;7.9;;
50165;SDS011;36071;48.140;11.516;2023-10-08T18:59:56;28.6;;;11.1;;
50165;SDS011;36071;48.140;11.516;2023-10-08T19:04:56;22.5;;;7.4;;
50165;SDS011;36071;48.140;11.516;2023-10-08T19:09:56;22.5;;;7.3;;
50165;SDS011;36071;48.140;11.516;2023-10-08T19:14:56;18.5;;;6.1;;
50165;SDS011;36071;48.140;11.516;2023-10-08T19:19:56;18.8;;;7.0;;
50165;SDS011;36071;48.140;11.516;2023-10-08T19:24:56;22.0;;;6.9;;
50165;SDS011;36071;48.140;11.516;2023-10-08T19:29:56;28.0;;;8.1;;
50165;SDS011;36071;48.140;11.516;2023-10-08T19:34:56;20.2;;;7.5;;
50165;SDS011;36071;48.140;11.516;2023-10-08T19:39:56;23.2;;;7.4;;
50165;SDS011;36071;48.140;11.516;2023-10-08T19:44:56;23.1;;;8.2;;
50165;SDS011;36071;48.140;11.516;2023-10-08T19:49:56;25.9;;;8.5;;
50165;SDS011;36071;48.140;11.516;2023-10-08T19:54:56;22.4;;;8.6;;
50165;SDS011;36071;48.140;11.516;2023-10-08T19:59:56;45.3;;;21.3;;
50165;SDS011;36071;48.140;11.516;2023-10-08T20:04:56;45.3;;;21.6;;
50165;SDS011;36071;48.140;11.516;2023-10-08T20:09:56;36.8;;;16.9;;
50165;SDS011;36071;48.140;11.516;2023-10-08T20:14:56;29.3;;;13.4;;
50165;SDS011;36071;48.140;11.516;2023-10-08T20:19:56;32.3;;;13.9;;
50165;SDS011;36071;48.140;11.516;2023-10-08T20:24:56;26.3;;;10.2;;
50165;SDS011;36071;48.140;11.516;2023-10-08T20:29:56;25.0;;;11.5;;
50165;SDS011;36071;48.140;11.516;2023-10-08T20:34:56;21.4;;;8.1;;
50165;SDS011;36071;48.140;11.516;2023-10-08T20:39:56;20.9;;;8.5;;
50165;SDS011;36071;48.140;11.516;2023-10-08T20:44:56;24.0;;;8.4;;
50165;SDS011;36071;48.140;11.516;2023-10-08T20:49:56;21.6;;;8.7;;
50165;SDS011;36071;48.140;11.516;2023-10-08T20:54:56;22.5;;;9.5;;
50165;SDS011;36071;48.140;11.516;2023-10-08T20:59:56;37.0;;;15.3;;
50165;SDS011;36071;48.140;11.516;2023-10-08T21:04:56;39.6;;;17.6;;
50165;SDS011;36071;48.140;11.516;2023-10-08T21:09:56;22.7;;;9.2;;
50165;SDS011;36071;48.140;11.516;2023-10-08T21:14:56;16.1;;;6.7;;
50165;SDS011;36071;48.140;11.516;2023-10-08T21:19:56;21.7;;;8.2;;
50165;SDS011;36071;48.140;11.516;2023-10-08T21:24:56;22.3;;;7.0;;
50165;SDS011;36071;48.140;11.516;2023-10-08T21:29:56;18.1;;;6.6;;
50165;SDS011;36071;48.140;11.516;2023-10-08T21:34:56;23.2;;;7.0;;
50165;SDS011;36071;48.140;11.516;2023-10-08T21:39:56;22.2;;;6.7;;
50165;SDS011;36071;48.140;11.516;2023-10-08T21:44:56;20.9;;;7.0;;
50165;SDS011;36071;48.140;11.516;2023-10-08T21:49:56;24.8;;;6.8;;
50165;SDS011;36071;48.140;11.516;2023-10-08T21:54:56;19.2;;;6.2;;
50165;SDS011;36071;48.140;11.516;2023-10-08T21:59:56;17.6;;;5.4;;
50165;SDS011;36071;48.140;11.516;2023-10-08T22:04:56;16.7;;;5.9;;
50165;SDS011;36071;48.140;11.516;2023-10-08T22:09:56;18.4;;;6.0;;
50165;SDS011;36071;48.140;11.516;2023-10-08T22:14:56;19.2;;;6.0;;
50165;SDS011;36071;48.140;11.516;2023-10-08T22:19:56;21.2;;;5.1;;
50165;SDS011;36071;48.140;11.516;2023-10-08T22:24:56;23.5;;;5.9;;
50165;SDS011;36071;48.140;11.516;2023-10-08T22:29:56;21.9;;;5.3;;
50165;SDS011;36071;48.140;11.516;2023-10-08T22:34:56;17.3;;;5.2;;
50165;SDS011;36071;48.140;11.516;2023-10-08T22:39:56;19.1;;;5.9;;
50165;SDS011;36071;48.140;11.516;2023-10-08T22:44:56;14.4;;;5.0;;
50165;SDS011;36071;48.140;11.516;2023-10-08T22:49:56;14.8;;;5.1;;
50165;SDS011;36071;48.140;11.516;2023-10-08T22:54:56;20.2;;;6.4;;
50165;SDS011;36071;48.140;11.516;2023-10-08T22:59:56;42.3;;;19.8;;
50165;SDS011;36071;48.140;11.516;2023-10-08T23:04:56;76.8;;;33.0;;
50165;SDS011;36071;48.140;11.516;2023-10-08T23:09:56;20.8;;;7.2;;
50165;SDS011;36071;48.140;11.516;2023-10-08T23:14:56;17.0;;;6.3;;
50165;SDS011;36071;48.140;11.516;2023-10-08T23:19:56;19.6;;;5.7;;
50165;SDS011;36071;48.140;11.516;2023-10-08T23:24:56;17.8;;;6.1;;
50165;SDS011;36071;48.140;11.516;2023-10-08T23:29:56;23.0;;;6.3;;
50165;SDS011;36071;48.140;11.516;2023-10-08T23:34:56;21.3;;;6.2;;
50165;SDS011;36071;48.140;11.516;2023-10-08T23:39:56;17.6;;;6.8;;
50165;SDS011;36071;48.140;11.516;2023-10-08T23:44:56;21.2;;;6.0;;
50165;SDS011;36071;48.140;11.516;2023-10-08T23:49:56;17.5;;;4.9;;
50165;SDS011;36071;48.140;11.516;2023-10-08T23:54:56;22.2;;;6.0;;
50165;SDS011;36071;48.140;11.516;2023-10-08T23:59:56;21.2;;;6.5;;
